Time;durP1;ratioP1;P1;durP2;ratioP2;P2;SDS_P1;SDS_P2;PMS_P1;PMS_P2;Temp;Humidity;BMP_temperature;BMP_pressure;BME280_temperature;BME280_humidity;BME280_pressure;Samples;Min_cycle;Max_cycle;Signal;HPM_P1;HPM_P2
2023/05/04 00:00:07;;;;;;;;;;;;;;;10.35;99.03;96961.34;5039339;28;19987;-68
2023/05/04 00:02:33;;;;;;;;;;;;;;;10.35;99.02;96961.34;5042099;28;20012;-70
2023/05/04 00:04:58;;;;;;;;;;;;;;;10.34;98.88;96960.56;5042784;28;20000;-69
2023/05/04 00:07:23;;;;;;;;;;;;;;;10.39;98.52;96954.00;5037071;28;20373;-69
2023/05/04 00:09:49;;;;;;;;;;;;;;;10.32;99.28;96960.13;5023359;28;20365;-69
2023/05/04 00:12:14;;;;;;;;;;;;;;;10.28;99.57;96956.47;5037161;28;19921;-70
2023/05/04 00:14:40;;;;;;;;;;;;;;;10.26;99.43;96959.59;5042164;28;19983;-68
2023/05/04 00:17:06;;;;;;;;;;;;;;;10.20;99.96;96949.28;5037296;28;20016;-69
2023/05/04 00:19:33;;;;;;;;;;;;;;;10.17;100.00;96948.03;5041537;28;19917;-69
2023/05/04 00:21:58;;;;;;;;;;;;;;;10.19;100.00;96950.41;5043399;28;19917;-69
2023/05/04 00:24:24;;;;;;;;;;;;;;;10.09;100.00;96946.31;5038171;28;19927;-69
2023/05/04 00:26:49;;;;;;;;;;;;;;;10.00;100.00;96942.97;5043226;28;19917;-69
2023/05/04 00:29:14;;;;;;;;;;;;;;;10.06;100.00;96944.28;5037557;28;19924;-69
2023/05/04 00:31:40;;;;;;;;;;;;;;;10.08;100.00;96945.53;5037388;28;19917;-69
2023/05/04 00:34:05;;;;;;;;;;;;;;;9.98;100.00;96942.56;5018491;28;20420;-68
2023/05/04 00:36:30;;;;;;;;;;;;;;;9.98;100.00;96945.28;5023061;28;19931;-68
2023/05/04 00:38:56;;;;;;;;;;;;;;;10.09;100.00;96940.84;5022376;28;19960;-69
2023/05/04 00:41:21;;;;;;;;;;;;;;;10.01;100.00;96939.06;5017113;28;20013;-68
2023/05/04 00:43:47;;;;;;;;;;;;;;;9.95;100.00;96933.88;5027204;28;19983;-69
2023/05/04 00:46:12;;;;;;;;;;;;;;;9.95;100.00;96935.81;5021336;28;20436;-69
2023/05/04 00:48:38;;;;;;;;;;;;;;;9.94;100.00;96937.00;5013461;28;19917;-70
2023/05/04 00:51:05;;;;;;;;;;;;;;;9.99;100.00;96939.44;5038203;28;19916;-69
2023/05/04 00:53:30;;;;;;;;;;;;;;;9.90;100.00;96939.66;5043789;28;19920;-70
2023/05/04 00:55:56;;;;;;;;;;;;;;;9.85;100.00;96934.44;5023152;28;19923;-70
2023/05/04 00:58:22;;;;;;;;;;;;;;;9.85;100.00;96939.91;5037677;28;20302;-70
2023/05/04 01:00:48;;;;;;;;;;;;;;;9.85;100.00;96936.38;5039452;28;19927;-69
2023/05/04 01:03:13;;;;;;;;;;;;;;;9.79;100.00;96941.31;5037141;28;20007;-69
2023/05/04 01:05:47;;;;;;;;;;;;;;;9.72;100.00;96941.16;5041561;28;19924;-70
2023/05/04 01:08:16;;;;;;;;;;;;;;;9.72;100.00;96944.72;5037390;28;19932;-69
2023/05/04 01:10:41;;;;;;;;;;;;;;;9.71;100.00;96936.84;5042095;28;20003;-68
2023/05/04 01:13:11;;;;;;;;;;;;;;;9.71;100.00;96945.84;5040251;28;19916;-69
2023/05/04 01:15:37;;;;;;;;;;;;;;;9.65;100.00;96941.81;5040914;28;19971;-69
2023/05/04 01:18:02;;;;;;;;;;;;;;;9.63;100.00;96946.03;5041340;28;20024;-67
2023/05/04 01:20:27;;;;;;;;;;;;;;;9.65;100.00;96944.53;5039102;28;20020;-70
2023/05/04 01:22:53;;;;;;;;;;;;;;;9.63;100.00;96937.81;5042513;28;20510;-68
2023/05/04 01:25:19;;;;;;;;;;;;;;;9.59;100.00;96945.94;5036721;28;20019;-68
2023/05/04 01:27:50;;;;;;;;;;;;;;;9.57;100.00;96946.28;5041472;28;19931;-68
2023/05/04 01:30:23;;;;;;;;;;;;;;;9.53;100.00;96950.88;5017999;28;19917;-70
2023/05/04 01:32:48;;;;;;;;;;;;;;;9.47;100.00;96944.09;5042710;28;20227;-69
2023/05/04 01:35:15;;;;;;;;;;;;;;;9.49;100.00;96939.06;5042314;28;19944;-69
2023/05/04 01:37:40;;;;;;;;;;;;;;;9.47;100.00;96948.75;5042096;28;19921;-70
2023/05/04 01:40:06;;;;;;;;;;;;;;;9.42;100.00;96940.81;5019646;28;19975;-69
2023/05/04 01:42:31;;;;;;;;;;;;;;;9.44;100.00;96946.75;5041830;28;19928;-70
2023/05/04 01:44:56;;;;;;;;;;;;;;;9.35;100.00;96952.38;5042988;28;19917;-70
2023/05/04 01:47:22;;;;;;;;;;;;;;;9.36;100.00;96945.75;5036814;28;19928;-70
2023/05/04 01:49:47;;;;;;;;;;;;;;;9.33;100.00;96943.75;5040469;28;19921;-70
2023/05/04 01:52:12;;;;;;;;;;;;;;;9.35;100.00;96944.97;5037230;28;19923;-70
2023/05/04 01:54:38;;;;;;;;;;;;;;;9.39;100.00;96936.88;5049451;28;19947;-70
2023/05/04 01:57:03;;;;;;;;;;;;;;;9.29;100.00;96945.59;5056879;28;20396;-65
2023/05/04 01:59:29;;;;;;;;;;;;;;;9.34;100.00;96937.91;5062448;28;19917;-70
2023/05/04 02:01:54;;;;;;;;;;;;;;;9.31;100.00;96938.63;5048614;28;19920;-67
2023/05/04 02:04:19;;;;;;;;;;;;;;;9.32;100.00;96947.63;5061249;28;19974;-68
2023/05/04 02:06:45;;;;;;;;;;;;;;;9.29;100.00;96938.19;5047158;28;19931;-68
2023/05/04 02:09:10;;;;;;;;;;;;;;;9.19;100.00;96946.91;5059907;28;19956;-70
2023/05/04 02:11:36;;;;;;;;;;;;;;;9.15;100.00;96941.34;5064320;28;19966;-70
2023/05/04 02:14:01;;;;;;;;;;;;;;;9.11;100.00;96945.94;5065366;28;20419;-68
2023/05/04 02:16:26;;;;;;;;;;;;;;;9.12;100.00;96949.47;5060582;28;19916;-67
2023/05/04 02:18:51;;;;;;;;;;;;;;;9.07;100.00;96947.75;5047225;28;19923;-68
2023/05/04 02:21:17;;;;;;;;;;;;;;;9.02;100.00;96944.50;5059397;28;19923;-68
2023/05/04 02:23:42;;;;;;;;;;;;;;;8.98;100.00;96950.69;5062100;28;19921;-68
2023/05/04 02:26:07;;;;;;;;;;;;;;;8.95;100.00;96950.59;5042277;28;19917;-69
2023/05/04 02:28:32;;;;;;;;;;;;;;;8.92;100.00;96946.59;5065629;28;20347;-69
2023/05/04 02:30:58;;;;;;;;;;;;;;;8.91;100.00;96945.03;5065004;28;20006;-68
2023/05/04 02:33:23;;;;;;;;;;;;;;;8.90;100.00;96945.38;5023822;28;19928;-68
2023/05/04 02:35:48;;;;;;;;;;;;;;;8.89;100.00;96954.69;5046093;28;19984;-68
2023/05/04 02:38:14;;;;;;;;;;;;;;;8.83;100.00;96953.38;5038842;28;19921;-69
2023/05/04 02:40:40;;;;;;;;;;;;;;;8.77;100.00;96945.44;5044571;28;19917;-69
2023/05/04 02:43:05;;;;;;;;;;;;;;;8.75;100.00;96950.44;5040345;28;20027;-69
2023/05/04 02:45:30;;;;;;;;;;;;;;;8.71;100.00;96946.03;5044114;28;20385;-70
2023/05/04 02:47:56;;;;;;;;;;;;;;;8.61;100.00;96947.31;5044353;28;20388;-70
2023/05/04 02:50:21;;;;;;;;;;;;;;;8.58;100.00;96943.34;5041271;28;20146;-69
2023/05/04 02:52:46;;;;;;;;;;;;;;;8.53;100.00;96940.06;5047819;28;20409;-68
2023/05/04 02:55:12;;;;;;;;;;;;;;;8.51;100.00;96942.34;5054063;28;19921;-68
2023/05/04 02:57:37;;;;;;;;;;;;;;;8.55;100.00;96948.69;5049034;28;19959;-70
2023/05/04 03:00:05;;;;;;;;;;;;;;;8.50;100.00;96947.03;5041676;28;19975;-67
2023/05/04 03:02:31;;;;;;;;;;;;;;;8.46;100.00;96937.13;5025690;28;19937;-70
2023/05/04 03:04:56;;;;;;;;;;;;;;;8.39;100.00;96945.88;5031284;28;19917;-68
2023/05/04 03:07:21;;;;;;;;;;;;;;;8.34;100.00;96948.88;5040244;28;19929;-69
2023/05/04 03:09:46;;;;;;;;;;;;;;;8.35;100.00;96945.78;5043935;28;20012;-69
2023/05/04 03:12:12;;;;;;;;;;;;;;;8.27;100.00;96948.66;5039309;28;19944;-69
2023/05/04 03:14:37;;;;;;;;;;;;;;;8.20;100.00;96941.84;5044029;28;20322;-70
2023/05/04 03:17:02;;;;;;;;;;;;;;;8.11;100.00;96943.13;5041286;28;20429;-67
2023/05/04 03:19:28;;;;;;;;;;;;;;;8.12;100.00;96942.78;5045324;28;19947;-70
2023/05/04 03:21:53;;;;;;;;;;;;;;;8.10;100.00;96945.03;5042557;28;20004;-69
2023/05/04 03:24:18;;;;;;;;;;;;;;;8.03;100.00;96942.91;5038533;28;19968;-69
2023/05/04 03:26:44;;;;;;;;;;;;;;;7.87;100.00;96952.94;5042411;28;20421;-69
2023/05/04 03:29:11;;;;;;;;;;;;;;;7.73;100.00;96952.50;5038394;28;20346;-69
2023/05/04 03:31:36;;;;;;;;;;;;;;;7.66;100.00;96950.34;5038718;28;19956;-70
2023/05/04 03:34:02;;;;;;;;;;;;;;;7.78;100.00;96946.81;5021277;28;19917;-67
2023/05/04 03:36:27;;;;;;;;;;;;;;;7.58;100.00;96946.59;5019273;28;20321;-69
2023/05/04 03:38:53;;;;;;;;;;;;;;;7.42;100.00;96946.47;5023092;28;20016;-70
2023/05/04 03:41:18;;;;;;;;;;;;;;;7.42;100.00;96953.84;5018065;28;20024;-69
2023/05/04 03:43:43;;;;;;;;;;;;;;;7.35;100.00;96953.63;5038916;28;19917;-69
2023/05/04 03:46:08;;;;;;;;;;;;;;;7.41;100.00;96957.69;5018076;28;19997;-68
2023/05/04 03:48:34;;;;;;;;;;;;;;;7.44;100.00;96951.59;5023438;28;20416;-69
2023/05/04 03:50:59;;;;;;;;;;;;;;;7.49;100.00;96947.81;5038114;28;19917;-69
2023/05/04 03:53:24;;;;;;;;;;;;;;;7.20;100.00;96950.44;5035167;28;20007;-69
2023/05/04 03:55:50;;;;;;;;;;;;;;;6.94;100.00;96952.63;5037095;28;19961;-68
2023/05/04 03:58:15;;;;;;;;;;;;;;;6.69;100.00;96947.09;5017756;28;19924;-69
2023/05/04 04:00:41;;;;;;;;;;;;;;;6.53;100.00;96955.09;5033179;28;19967;-70
2023/05/04 04:03:07;;;;;;;;;;;;;;;6.62;100.00;96953.09;5037200;28;19998;-69
2023/05/04 04:05:32;;;;;;;;;;;;;;;6.59;100.00;96945.59;5024903;28;19921;-68
2023/05/04 04:07:57;;;;;;;;;;;;;;;6.62;100.00;96938.69;5033259;28;19923;-68
2023/05/04 04:10:22;;;;;;;;;;;;;;;6.65;100.00;96941.53;5037974;28;19917;-69
2023/05/04 04:12:48;;;;;;;;;;;;;;;6.60;100.00;96938.22;5043542;28;19924;-69
2023/05/04 04:15:14;;;;;;;;;;;;;;;6.66;100.00;96945.03;5038033;28;20958;-69
2023/05/04 04:17:40;;;;;;;;;;;;;;;6.74;100.00;96949.63;5042406;28;19916;-69
2023/05/04 04:20:05;;;;;;;;;;;;;;;6.80;100.00;96952.94;5038060;28;19924;-69
2023/05/04 04:22:31;;;;;;;;;;;;;;;6.88;100.00;96952.84;5041865;28;19917;-69
2023/05/04 04:24:56;;;;;;;;;;;;;;;6.87;100.00;96953.97;5040075;28;19962;-69
2023/05/04 04:27:21;;;;;;;;;;;;;;;6.84;100.00;96953.84;5037333;28;22052;-68
2023/05/04 04:29:46;;;;;;;;;;;;;;;6.93;100.00;96956.47;5042683;28;20105;-68
2023/05/04 04:32:14;;;;;;;;;;;;;;;6.99;100.00;96953.22;4999340;28;20074;-69
2023/05/04 04:34:39;;;;;;;;;;;;;;;7.13;100.00;96952.91;5022307;28;19995;-68
2023/05/04 04:37:05;;;;;;;;;;;;;;;7.27;100.00;96958.84;5016878;28;19917;-68
2023/05/04 04:39:31;;;;;;;;;;;;;;;7.40;100.00;96956.09;5037407;28;19924;-68
2023/05/04 04:41:56;;;;;;;;;;;;;;;7.57;100.00;96964.06;5022661;28;19925;-68
2023/05/04 04:44:21;;;;;;;;;;;;;;;7.51;100.00;96964.63;5016762;28;19956;-69
2023/05/04 04:46:47;;;;;;;;;;;;;;;7.44;100.00;96963.28;5021996;28;19921;-69
2023/05/04 04:49:12;;;;;;;;;;;;;;;7.50;100.00;96968.50;5017760;28;19921;-69
2023/05/04 04:51:39;;;;;;;;;;;;;;;7.58;100.00;96962.13;5021026;28;19921;-69
2023/05/04 04:54:05;;;;;;;;;;;;;;;7.74;100.00;96968.53;5026849;28;20446;-68
2023/05/04 04:56:30;;;;;;;;;;;;;;;7.89;100.00;96967.03;5056623;28;19917;-69
2023/05/04 04:58:55;;;;;;;;;;;;;;;8.16;100.00;96962.00;5063504;28;19920;-70
2023/05/04 05:01:21;;;;;;;;;;;;;;;9.17;100.00;96966.38;5038721;28;20355;-70
2023/05/04 05:03:47;;;;;;;;;;;;;;;10.46;100.00;96965.91;5062442;28;19924;-70
2023/05/04 05:06:13;;;;;;;;;;;;;;;10.77;100.00;96972.41;5056729;28;20239;-69
2023/05/04 05:08:38;;;;;;;;;;;;;;;12.29;94.11;96973.81;5049163;28;19924;-69
2023/05/04 05:11:04;;;;;;;;;;;;;;;13.80;84.92;96974.72;5042744;28;20158;-68
2023/05/04 05:13:30;;;;;;;;;;;;;;;15.36;73.96;96983.38;5042250;28;19924;-68
2023/05/04 05:15:55;;;;;;;;;;;;;;;16.86;64.25;96984.50;5035291;28;20030;-70
2023/05/04 05:18:21;;;;;;;;;;;;;;;18.23;56.63;96987.19;5036985;28;19921;-70
2023/05/04 05:20:46;;;;;;;;;;;;;;;17.84;52.47;96991.81;5041407;28;20024;-68
2023/05/04 05:23:11;;;;;;;;;;;;;;;17.77;56.60;96980.78;5018932;28;19921;-69
2023/05/04 05:25:37;;;;;;;;;;;;;;;18.41;53.60;96982.25;5041192;28;20276;-69
2023/05/04 05:28:03;;;;;;;;;;;;;;;19.64;49.21;96985.13;5040082;28;19917;-67
2023/05/04 05:30:28;;;;;;;;;;;;;;;19.61;50.63;96988.72;5021205;28;20432;-70
2023/05/04 05:32:53;;;;;;;;;;;;;;;20.51;46.22;96986.47;5027276;28;19921;-69
2023/05/04 05:35:18;;;;;;;;;;;;;;;21.32;45.44;96977.72;5022159;28;20028;-68
2023/05/04 05:37:44;;;;;;;;;;;;;;;21.68;43.74;96988.09;5036371;28;19921;-68
2023/05/04 05:40:09;;;;;;;;;;;;;;;21.69;43.11;96994.44;5023964;28;19932;-70
2023/05/04 05:42:35;;;;;;;;;;;;;;;21.87;42.67;96989.22;5026004;28;19921;-69
2023/05/04 05:45:02;;;;;;;;;;;;;;;22.08;42.26;96998.31;5026727;28;20284;-69
2023/05/04 05:47:27;;;;;;;;;;;;;;;23.06;40.58;96995.34;5023113;28;19925;-69
2023/05/04 05:49:53;;;;;;;;;;;;;;;23.60;38.88;96988.16;5025310;28;19971;-69
2023/05/04 05:52:18;;;;;;;;;;;;;;;23.69;38.79;96986.72;5022274;28;20362;-68
2023/05/04 05:54:44;;;;;;;;;;;;;;;23.94;37.87;96980.38;5052998;28;19984;-69
2023/05/04 05:57:09;;;;;;;;;;;;;;;23.32;38.92;96981.44;5058313;28;19955;-68
2023/05/04 05:59:34;;;;;;;;;;;;;;;24.43;37.21;96979.91;5064797;28;19927;-68
2023/05/04 06:01:59;;;;;;;;;;;;;;;23.76;37.54;96983.69;5065832;28;19927;-69
2023/05/04 06:04:25;;;;;;;;;;;;;;;23.56;38.83;96986.72;5060071;28;19942;-69
2023/05/04 06:06:50;;;;;;;;;;;;;;;24.24;37.64;96978.97;5062839;28;19917;-69
2023/05/04 06:09:15;;;;;;;;;;;;;;;24.95;35.18;96995.31;5038823;28;19923;-69
2023/05/04 06:11:41;;;;;;;;;;;;;;;24.48;36.87;96990.53;5044778;28;20019;-69
2023/05/04 06:14:06;;;;;;;;;;;;;;;24.63;35.55;96999.25;5039901;28;19991;-68
2023/05/04 06:16:31;;;;;;;;;;;;;;;23.70;38.29;96996.66;5044679;28;19963;-70
2023/05/04 06:18:57;;;;;;;;;;;;;;;16.38;54.62;96994.06;5043012;28;19917;-69
2023/05/04 06:21:22;;;;;;;;;;;;;;;18.01;52.49;96992.16;5039892;28;19920;-69
2023/05/04 06:23:48;;;;;;;;;;;;;;;18.22;51.96;96985.59;5045300;28;19916;-69
2023/05/04 06:26:13;;;;;;;;;;;;;;;20.03;47.61;96983.72;5039327;28;19921;-69
2023/05/04 06:28:38;;;;;;;;;;;;;;;21.58;43.47;96980.75;5044126;28;20742;-70
2023/05/04 06:31:03;;;;;;;;;;;;;;;20.42;45.44;96982.25;5040603;28;20015;-68
2023/05/04 06:33:29;;;;;;;;;;;;;;;21.79;42.14;96975.88;5021750;28;20436;-69
2023/05/04 06:35:54;;;;;;;;;;;;;;;22.85;41.09;96982.75;5027876;28;19944;-70
2023/05/04 06:38:20;;;;;;;;;;;;;;;21.03;43.33;96987.88;5020014;28;19935;-69
2023/05/04 06:40:45;;;;;;;;;;;;;;;17.39;51.98;96977.88;5022981;28;19937;-69
2023/05/04 06:43:11;;;;;;;;;;;;;;;16.47;56.08;96985.38;5019285;28;20028;-70
2023/05/04 06:45:36;;;;;;;;;;;;;;;19.36;50.28;96971.66;5023706;28;20362;-70
2023/05/04 06:48:02;;;;;;;;;;;;;;;21.67;43.94;96982.94;5025115;28;20082;-71
2023/05/04 06:50:27;;;;;;;;;;;;;;;16.31;54.35;96977.50;5020203;28;19917;-71
2023/05/04 06:53:00;;;;;;;;;;;;;;;19.22;50.38;96976.19;5032260;28;19917;-70
2023/05/04 06:55:25;;;;;;;;;;;;;;;20.37;46.67;96985.53;5049753;28;19928;-68
2023/05/04 06:57:51;;;;;;;;;;;;;;;16.32;56.60;96988.16;5064447;28;19921;-67
2023/05/04 07:00:16;;;;;;;;;;;;;;;15.48;62.71;96986.56;5059659;28;19967;-68
2023/05/04 07:02:41;;;;;;;;;;;;;;;16.70;58.39;96985.69;5064186;28;20266;-69
2023/05/04 07:05:07;;;;;;;;;;;;;;;18.79;53.26;96970.34;5057158;28;19916;-70
2023/05/04 07:07:32;;;;;;;;;;;;;;;21.52;45.58;96977.72;5055885;28;20011;-68
2023/05/04 07:09:58;;;;;;;;;;;;;;;19.44;49.36;96970.31;5043285;28;20368;-69
2023/05/04 07:12:23;;;;;;;;;;;;;;;21.39;45.51;96972.00;5037769;28;20531;-69
2023/05/04 07:14:48;;;;;;;;;;;;;;;21.06;45.88;96981.47;5043661;28;19956;-69
2023/05/04 07:17:14;;;;;;;;;;;;;;;21.96;42.32;96985.84;5037674;28;20478;-69
2023/05/04 07:19:39;;;;;;;;;;;;;;;24.12;40.20;96980.56;5026250;28;19923;-69
2023/05/04 07:22:04;;;;;;;;;;;;;;;24.44;38.36;96981.50;5038832;28;19925;-68
2023/05/04 07:24:30;;;;;;;;;;;;;;;22.51;42.23;96980.50;5044503;28;19948;-70
2023/05/04 07:26:55;;;;;;;;;;;;;;;23.13;41.38;96982.41;5026114;28;19925;-70
2023/05/04 07:29:21;;;;;;;;;;;;;;;22.42;42.20;96983.13;5039259;28;19963;-70
2023/05/04 07:31:46;;;;;;;;;;;;;;;22.09;42.89;96983.94;5037212;28;19922;-69
2023/05/04 07:34:11;;;;;;;;;;;;;;;21.77;43.01;96977.13;5016110;28;19963;-68
2023/05/04 07:36:36;;;;;;;;;;;;;;;22.32;42.86;96960.63;5023759;28;19918;-69
2023/05/04 07:39:02;;;;;;;;;;;;;;;22.24;42.19;96964.81;5022242;28;19917;-66
2023/05/04 07:41:27;;;;;;;;;;;;;;;22.88;41.83;96959.53;5019808;28;20012;-70
2023/05/04 07:43:52;;;;;;;;;;;;;;;22.08;42.86;96968.41;5023505;28;20308;-69
2023/05/04 07:46:18;;;;;;;;;;;;;;;22.48;41.75;96965.41;5011390;28;19932;-68
2023/05/04 07:48:43;;;;;;;;;;;;;;;21.42;42.98;96972.34;5036627;28;19928;-71
2023/05/04 07:51:15;;;;;;;;;;;;;;;21.93;43.46;96970.78;5016768;28;19983;-69
2023/05/04 07:53:41;;;;;;;;;;;;;;;22.26;41.95;96970.78;5043181;28;20321;-69
2023/05/04 07:56:11;;;;;;;;;;;;;;;21.46;44.39;96970.28;5048076;28;19999;-69
2023/05/04 07:58:36;;;;;;;;;;;;;;;22.74;42.16;96973.09;5063019;28;19916;-70
2023/05/04 08:01:02;;;;;;;;;;;;;;;23.09;41.02;96969.31;5060137;28;19920;-70
2023/05/04 08:03:29;;;;;;;;;;;;;;;22.94;41.51;96967.34;5060630;28;19927;-70
2023/05/04 08:05:55;;;;;;;;;;;;;;;23.12;40.31;96969.66;5062655;28;19938;-68
2023/05/04 08:08:20;;;;;;;;;;;;;;;22.91;41.51;96966.25;5044419;28;19939;-69
2023/05/04 08:10:45;;;;;;;;;;;;;;;23.03;41.49;96984.25;5043294;28;19917;-70
2023/05/04 08:13:11;;;;;;;;;;;;;;;22.82;41.87;96971.69;5037468;28;20341;-69
2023/05/04 08:15:36;;;;;;;;;;;;;;;23.06;42.12;96973.00;5025276;28;19936;-70
2023/05/04 08:18:01;;;;;;;;;;;;;;;23.07;41.41;96974.59;5042893;28;19940;-69
2023/05/04 08:20:26;;;;;;;;;;;;;;;22.76;42.26;96965.88;5038114;28;20001;-69
2023/05/04 08:22:52;;;;;;;;;;;;;;;22.95;41.75;96974.53;5043059;28;20320;-69
2023/05/04 08:25:17;;;;;;;;;;;;;;;22.68;41.27;96970.84;5037050;28;19917;-69
2023/05/04 08:27:43;;;;;;;;;;;;;;;20.60;45.17;96965.25;5040956;28;20378;-70
2023/05/04 08:30:09;;;;;;;;;;;;;;;21.09;45.12;96959.13;5037547;28;19924;-70
2023/05/04 08:32:34;;;;;;;;;;;;;;;18.18;53.51;96957.91;5021050;28;19921;-70
2023/05/04 08:35:00;;;;;;;;;;;;;;;21.20;47.10;96950.53;5022819;28;19924;-69
2023/05/04 08:37:25;;;;;;;;;;;;;;;22.05;43.81;96943.41;5017589;28;20011;-69
2023/05/04 08:39:50;;;;;;;;;;;;;;;22.65;42.86;96951.41;5020986;28;19917;-68
2023/05/04 08:42:28;;;;;;;;;;;;;;;21.77;43.56;96940.88;5017844;28;19925;-69
2023/05/04 08:44:57;;;;;;;;;;;;;;;19.55;48.86;96943.16;5028011;28;19924;-69
2023/05/04 08:47:24;;;;;;;;;;;;;;;21.75;45.39;96937.75;5027296;28;20398;-68
2023/05/04 08:49:49;;;;;;;;;;;;;;;23.01;42.15;96944.81;5022179;28;19921;-69
2023/05/04 08:52:15;;;;;;;;;;;;;;;22.85;42.41;96940.06;5018770;28;20389;-68
2023/05/04 08:54:42;;;;;;;;;;;;;;;22.41;42.66;96945.28;5049891;28;20326;-68
2023/05/04 08:57:07;;;;;;;;;;;;;;;22.12;43.77;96946.78;5057945;28;19920;-68
2023/05/04 08:59:33;;;;;;;;;;;;;;;20.52;47.36;96946.31;5064843;28;19947;-69
2023/05/04 09:01:59;;;;;;;;;;;;;;;22.68;44.02;96945.72;5061894;28;19921;-68
2023/05/04 09:04:25;;;;;;;;;;;;;;;23.49;42.33;96940.19;5057558;28;19956;-70
2023/05/04 09:06:52;;;;;;;;;;;;;;;22.50;43.40;96949.00;5060671;28;19916;-69
2023/05/04 09:09:18;;;;;;;;;;;;;;;22.03;44.67;96934.69;5037208;28;19928;-69
2023/05/04 09:11:44;;;;;;;;;;;;;;;21.74;45.58;96943.75;5048570;28;19921;-69
2023/05/04 09:14:09;;;;;;;;;;;;;;;21.86;45.54;96939.47;5053154;28;19917;-69
2023/05/04 09:16:35;;;;;;;;;;;;;;;22.45;44.27;96943.94;5043172;28;19955;-69
2023/05/04 09:19:00;;;;;;;;;;;;;;;22.42;43.90;96936.47;5042285;28;19920;-68
2023/05/04 09:21:30;;;;;;;;;;;;;;;22.44;44.19;96942.41;5037600;28;19921;-69
2023/05/04 09:23:55;;;;;;;;;;;;;;;22.61;43.49;96945.16;5041358;28;19927;-70
2023/05/04 09:26:30;;;;;;;;;;;;;;;22.24;44.15;96936.94;5036871;28;19917;-69
2023/05/04 09:28:56;;;;;;;;;;;;;;;22.14;44.25;96941.53;5041079;28;19927;-70
2023/05/04 09:31:22;;;;;;;;;;;;;;;22.02;43.63;96942.28;5016957;28;20447;-69
2023/05/04 09:33:47;;;;;;;;;;;;;;;22.06;44.87;96934.59;5021183;28;19917;-69
2023/05/04 09:36:23;;;;;;;;;;;;;;;21.73;45.98;96937.41;5015518;28;20000;-69
2023/05/04 09:38:49;;;;;;;;;;;;;;;21.87;45.25;96933.47;5020313;28;19932;-69
2023/05/04 09:41:14;;;;;;;;;;;;;;;21.58;45.54;96936.16;5017457;28;19929;-68
2023/05/04 09:43:40;;;;;;;;;;;;;;;21.99;44.59;96934.78;5021381;28;19996;-68
2023/05/04 09:46:07;;;;;;;;;;;;;;;21.82;45.07;96933.22;5015970;28;20432;-69
2023/05/04 09:48:32;;;;;;;;;;;;;;;21.76;46.27;96925.38;5021896;28;20389;-68
2023/05/04 09:50:58;;;;;;;;;;;;;;;21.79;45.12;96934.88;5022124;28;20012;-69
2023/05/04 09:53:25;;;;;;;;;;;;;;;22.23;44.44;96929.78;5032702;28;20054;-69
2023/05/04 09:55:55;;;;;;;;;;;;;;;22.48;44.46;96937.50;5045810;28;19917;-69
2023/05/04 09:58:21;;;;;;;;;;;;;;;22.53;44.47;96938.97;5035586;28;20404;-68
2023/05/04 10:00:47;;;;;;;;;;;;;;;22.39;44.33;96934.56;5042400;28;19921;-70
2023/05/04 10:03:13;;;;;;;;;;;;;;;22.49;44.35;96935.47;5050668;28;19920;-70
2023/05/04 10:05:39;;;;;;;;;;;;;;;22.76;43.75;96924.00;5049990;28;20416;-68
2023/05/04 10:08:05;;;;;;;;;;;;;;;23.28;42.72;96922.06;5049393;28;19917;-67
2023/05/04 10:10:31;;;;;;;;;;;;;;;23.09;42.54;96935.03;5023878;28;19917;-68
2023/05/04 10:12:56;;;;;;;;;;;;;;;22.41;44.52;96932.13;5039460;28;19928;-69
2023/05/04 10:15:22;;;;;;;;;;;;;;;21.88;44.71;96921.09;5037743;28;20935;-68
2023/05/04 10:17:47;;;;;;;;;;;;;;;21.47;45.04;96924.50;5041151;28;19917;-70
2023/05/04 10:20:31;;;;;;;;;;;;;;;21.68;45.13;96910.06;5036002;28;19971;-70
2023/05/04 10:22:57;;;;;;;;;;;;;;;21.93;44.90;96917.00;5041937;28;20262;-71
2023/05/04 10:25:44;;;;;;;;;;;;;;;22.13;44.58;96916.91;5006304;28;19982;-68
2023/05/04 10:28:28;;;;;;;;;;;;;;;22.48;43.87;96917.97;5041177;28;19917;-70
2023/05/04 10:30:57;;;;;;;;;;;;;;;22.03;43.98;96915.16;5044858;28;20354;-70
2023/05/04 10:33:23;;;;;;;;;;;;;;;22.39;43.99;96903.09;5040458;28;19936;-69
2023/05/04 10:35:51;;;;;;;;;;;;;;;22.90;42.94;96909.63;5024702;28;19917;-69
2023/05/04 10:38:17;;;;;;;;;;;;;;;22.76;43.22;96906.44;5018657;28;19983;-69
2023/05/04 10:40:42;;;;;;;;;;;;;;;22.67;43.20;96907.06;5026186;28;20378;-69
2023/05/04 10:43:09;;;;;;;;;;;;;;;22.30;43.91;96907.28;5019480;28;19951;-70
2023/05/04 10:45:36;;;;;;;;;;;;;;;22.18;44.38;96904.41;5023673;28;19944;-69
2023/05/04 10:48:01;;;;;;;;;;;;;;;22.52;43.67;96895.53;5004882;28;19928;-69
2023/05/04 10:50:27;;;;;;;;;;;;;;;22.32;44.35;96898.47;5019077;28;19917;-68
2023/05/04 10:52:52;;;;;;;;;;;;;;;21.66;45.79;96894.97;5023620;28;19917;-70
2023/05/04 10:55:18;;;;;;;;;;;;;;;20.18;49.18;96892.50;5018413;28;20753;-69
2023/05/04 10:57:48;;;;;;;;;;;;;;;20.73;48.90;96887.47;5024404;28;19927;-70
2023/05/04 11:00:14;;;;;;;;;;;;;;;20.81;48.30;96877.78;5019699;28;19963;-69
2023/05/04 11:02:39;;;;;;;;;;;;;;;20.49;48.00;96880.41;5023502;28;20326;-68
2023/05/04 11:05:06;;;;;;;;;;;;;;;20.84;48.98;96875.34;5019365;28;19921;-68
2023/05/04 11:07:36;;;;;;;;;;;;;;;20.69;48.78;96864.53;5022949;28;20562;-71
2023/05/04 11:10:02;;;;;;;;;;;;;;;21.08;48.14;96867.66;5022545;28;19917;-70
2023/05/04 11:12:28;;;;;;;;;;;;;;;21.18;47.50;96855.50;5020171;28;19924;-69
2023/05/04 11:15:02;;;;;;;;;;;;;;;20.89;48.49;96860.94;5023703;28;19917;-68
2023/05/04 11:17:28;;;;;;;;;;;;;;;20.78;48.48;96855.59;5019314;28;20371;-69
2023/05/04 11:19:53;;;;;;;;;;;;;;;20.71;47.80;96861.31;5023627;28;19925;-69
2023/05/04 11:22:19;;;;;;;;;;;;;;;20.70;49.16;96854.94;5019625;28;20397;-69
2023/05/04 11:24:45;;;;;;;;;;;;;;;20.54;49.29;96857.63;5023588;28;19921;-69
2023/05/04 11:27:23;;;;;;;;;;;;;;;20.70;47.83;96863.28;5018871;28;19921;-67
2023/05/04 11:29:52;;;;;;;;;;;;;;;20.38;48.24;96861.13;5023512;28;20274;-68
2023/05/04 11:32:18;;;;;;;;;;;;;;;20.39;48.71;96857.16;5018696;28;20356;-69
2023/05/04 11:34:44;;;;;;;;;;;;;;;20.76;49.04;96847.66;5021841;28;19917;-69
2023/05/04 11:37:11;;;;;;;;;;;;;;;20.84;48.21;96851.06;5018697;28;20320;-69
2023/05/04 11:39:37;;;;;;;;;;;;;;;20.86;48.25;96848.63;5023079;28;19952;-69
2023/05/04 11:42:06;;;;;;;;;;;;;;;20.50;48.55;96848.59;5020433;28;19960;-66
2023/05/04 11:44:32;;;;;;;;;;;;;;;20.27;49.02;96846.66;5023332;28;20304;-69
2023/05/04 11:46:57;;;;;;;;;;;;;;;19.79;49.19;96848.72;5022583;28;19925;-69
2023/05/04 11:49:25;;;;;;;;;;;;;;;19.13;51.66;96841.88;5007412;28;19952;-68
2023/05/04 11:51:51;;;;;;;;;;;;;;;19.60;50.94;96836.34;5022317;28;19995;-69
2023/05/04 11:54:21;;;;;;;;;;;;;;;19.97;49.99;96838.09;5017599;28;19921;-68
2023/05/04 11:56:46;;;;;;;;;;;;;;;19.53;52.08;96839.25;5023670;28;19917;-68
2023/05/04 11:59:11;;;;;;;;;;;;;;;19.78;50.97;96836.84;5018760;28;19928;-68
2023/05/04 12:01:36;;;;;;;;;;;;;;;19.96;50.47;96841.28;5022291;28;20381;-68
2023/05/04 12:04:02;;;;;;;;;;;;;;;19.97;50.75;96831.72;5021016;28;20340;-67
2023/05/04 12:06:31;;;;;;;;;;;;;;;19.35;52.40;96831.97;5018425;28;19929;-68
2023/05/04 12:09:00;;;;;;;;;;;;;;;19.77;51.68;96826.94;5004586;28;19960;-69
2023/05/04 12:11:27;;;;;;;;;;;;;;;20.09;50.61;96824.78;5000472;28;19933;-68
2023/05/04 12:14:15;;;;;;;;;;;;;;;20.08;50.30;96824.00;5023113;28;19970;-69
2023/05/04 12:16:51;;;;;;;;;;;;;;;20.37;50.72;96826.97;5022313;28;19917;-69
2023/05/04 12:19:17;;;;;;;;;;;;;;;20.40;48.74;96822.53;5018851;28;19921;-69
2023/05/04 12:21:50;;;;;;;;;;;;;;;20.61;48.79;96816.56;5046384;28;19952;-67
2023/05/04 12:24:15;;;;;;;;;;;;;;;20.60;45.31;96822.56;5037144;28;20361;-70
2023/05/04 12:26:41;;;;;;;;;;;;;;;20.67;46.04;96814.06;5040838;28;19923;-69
2023/05/04 12:29:06;;;;;;;;;;;;;;;21.07;45.63;96807.59;5036191;28;19931;-69
2023/05/04 12:31:31;;;;;;;;;;;;;;;20.81;46.03;96812.97;5042186;28;19916;-69
2023/05/04 12:33:57;;;;;;;;;;;;;;;20.88;42.01;96814.81;5042018;28;19917;-69
2023/05/04 12:36:23;;;;;;;;;;;;;;;21.02;40.45;96808.91;5035697;28;20329;-69
2023/05/04 12:38:48;;;;;;;;;;;;;;;21.15;42.08;96809.00;5023365;28;19917;-69